Flight Track Log - Related Links

Times and Time Zones

All times are in EDT time to prevent confusion due to time zone crossing. See the TCY723 flight status page for this flight to view local times or setup timezone preferences in your user account.

Time Position Orientation Groundspeed Altitude Reporting Facility
EDT Latitude Longitude Course Direction KTS MPH feet Rate Location/Type
Sun 03:07:23 PM 42.3833 -71.0000 340° North 107 123 600  Level Boston TRACON
Sun 03:08:41 PM 42.4167 -71.0167 360° North 116 133 1,900 1,000 Climbing Boston TRACON
Sun 03:09:47 PM 42.4500 -71.0167 360° North 121 139 3,000 950 Climbing Boston TRACON
Sun 03:10:41 PM 42.4833 -71.0167 360° North 117 135 3,800 950 Climbing Boston TRACON
Sun 03:11:47 PM 42.5167 -71.0167 20° North 117 135 4,900 952 Climbing Boston TRACON
Sun 03:12:47 PM 42.5500 -71.0000 360° North 120 138 5,800 850 Climbing Boston TRACON
Sun 03:13:47 PM 42.5833 -71.0000 360° North 123 142 6,600 650 Climbing Boston TRACON
Sun 03:14:47 PM 42.6167 -71.0000 14° North 130 150 7,100 250 Climbing Boston TRACON
Sun 03:15:47 PM 42.6667 -70.9833 20° North 158 182 7,100  Level Boston TRACON
Sun 03:16:47 PM 42.7000 -70.9667 14° North 166 191 7,100  Level Boston TRACON
Sun 03:17:47 PM 42.7500 -70.9500 360° North 164 189 7,100  Level Boston TRACON
Sun 03:18:54 PM 42.8000 -70.9500 14° North 167 192 7,100  Level Boston TRACON
Sun 03:19:48 PM 42.8500 -70.9333 20° North 169 194 7,100  Level Boston TRACON
Sun 03:20:48 PM 42.8833 -70.9167 26° Northeast 173 199 7,100  Level Boston TRACON
Sun 03:21:54 PM 42.9333 -70.8833 14° North 169 194 7,100  Level Boston TRACON
Sun 03:22:48 PM 42.9833 -70.8667 20° North 164 189 7,100  Level Boston TRACON
Sun 03:23:48 PM 43.0167 -70.8500 23° Northeast 167 192 7,100  Level Boston TRACON
Sun 03:31:32 PM 43.2405 -70.7201 22° Northeast  Level FlightAware Approximate
Sun 03:32:32 PM 43.2696 -70.7038 22° Northeast  Level FlightAware Approximate
Sun 03:33:32 PM 43.2987 -70.6875 31° Northeast  Level FlightAware Approximate
Sun 03:34:32 PM 43.3250 -70.6655 22° Northeast  Level FlightAware Approximate
Sun 03:35:32 PM 43.3542 -70.6495 22° Northeast  Level FlightAware Approximate
Sun 03:36:32 PM 43.3834 -70.6334 22° Northeast  Level FlightAware Approximate
Sun 03:37:32 PM 43.4126 -70.6174 42° Northeast  Level FlightAware Approximate
Sun 03:38:32 PM 43.4338 -70.5915 21° North  Level FlightAware Approximate
Sun 03:39:32 PM 43.4632 -70.5760 21° North  Level FlightAware Approximate
Sun 03:40:32 PM 43.4925 -70.5606 21° North  Level FlightAware Approximate
Sun 03:41:32 PM 43.5219 -70.5451 21° North  Level FlightAware Approximate
Sun 03:42:32 PM 43.5513 -70.5296 21° North  Level FlightAware Approximate
Sun 03:43:32 PM 43.5807 -70.5141 21° North  Level FlightAware Approximate
Sun 03:44:32 PM 43.6100 -70.4986 19° North  Level FlightAware Approximate
Sun 03:45:32 PM 43.6390 -70.4852 25° Northeast  Level FlightAware Approximate
Sun 03:46:32 PM 43.6673 -70.4665 21° North  Level FlightAware Approximate
Sun 03:47:32 PM 43.6967 -70.4510 21° North  Level FlightAware Approximate

Login

Don't have an account? Register now (free) for customized features, flight alerts, and more!